Troxelville, Pennsylvania
Current Conditions -  °F | °C
As of 8:53 PM on Wednesday 26 Nov 2014 (Local Time) from KSEG Reporting Station
Overcast Overcast  
Wind Chill: 26°   Ceiling: 6000
Heat Index: 32°   Visibility: 10mi
Dew Point: 29°   Wind: 7mph
Humidity: 88%   Direction: 10°N
Pressure: 29.95"   Gusts: NA
Location:  40.8°N, 77.21°W
Report Text: KSEG 270153Z AUTO 01006KT 10SM BKN060 OVC120 00/M02 A2995 RMK AO2 SNE38 SLP145 P0000 T00001017
Loading
Personal Weather Stations






























Interactive Weather Map New forecast layout! Learn more

10-Day Weather Forecast

Advertisements
Track Severe Weather on mobile